Time;durP1;ratioP1;P1;durP2;ratioP2;P2;SDS_P1;SDS_P2;PMS_P1;PMS_P2;Temp;Humidity;BMP_temperature;BMP_pressure;BME280_temperature;BME280_humidity;BME280_pressure;Samples;Min_cycle;Max_cycle;Signal;HPM_P1;HPM_P2
2022/12/26 00:01:59;;;;;;;8.43;6.65;;;10.80;99.90;;;;;;7286511;32;20648;-58
2022/12/26 00:06:00;;;;;;;10.43;6.43;;;10.70;99.90;;;;;;7281274;32;20237;-58
2022/12/26 00:10:02;;;;;;;9.77;6.47;;;10.80;99.90;;;;;;7276332;32;20192;-60
2022/12/26 00:14:11;;;;;;;11.45;6.47;;;10.80;99.90;;;;;;7276751;32;20202;-58
2022/12/26 00:18:12;;;;;;;9.90;6.72;;;10.70;99.90;;;;;;7275353;32;20199;-58
2022/12/26 00:22:14;;;;;;;11.57;6.12;;;10.70;99.90;;;;;;7289290;32;20253;-59
2022/12/26 00:26:18;;;;;;;7.78;6.00;;;10.60;99.90;;;;;;7291944;32;20111;-58
2022/12/26 00:30:20;;;;;;;8.82;6.55;;;10.70;99.90;;;;;;7289104;32;20140;-58
2022/12/26 00:34:22;;;;;;;9.57;6.12;;;10.80;99.90;;;;;;7291167;32;20448;-58
2022/12/26 00:38:24;;;;;;;8.95;5.18;;;10.70;99.90;;;;;;7285258;32;20234;-59
2022/12/26 00:42:26;;;;;;;9.05;5.50;;;10.70;99.90;;;;;;7294821;32;20191;-58
2022/12/26 00:46:27;;;;;;;8.70;5.43;;;10.70;99.90;;;;;;7291993;32;20313;-58
2022/12/26 00:50:29;;;;;;;9.18;5.53;;;10.70;99.90;;;;;;7295568;32;20131;-59
2022/12/26 00:54:35;;;;;;;11.98;5.22;;;10.70;99.90;;;;;;7292158;32;20267;-58
2022/12/26 00:58:37;;;;;;;8.07;4.90;;;10.70;99.90;;;;;;7278647;32;20257;-58
2022/12/26 01:02:39;;;;;;;11.93;6.65;;;10.60;99.90;;;;;;7283576;32;20134;-58
2022/12/26 01:06:42;;;;;;;9.45;5.75;;;10.70;99.90;;;;;;7296636;32;20129;-60
2022/12/26 01:10:45;;;;;;;9.55;5.90;;;10.70;99.90;;;;;;7269584;32;20632;-58
2022/12/26 01:14:47;;;;;;;10.82;5.53;;;10.70;99.90;;;;;;7294333;32;20260;-58
2022/12/26 01:18:49;;;;;;;10.95;5.85;;;10.80;99.90;;;;;;7297313;32;20195;-58
2022/12/26 01:22:51;;;;;;;8.77;4.70;;;10.80;99.90;;;;;;7268679;32;20100;-58
2022/12/26 01:26:53;;;;;;;6.43;4.05;;;10.80;99.90;;;;;;7278316;32;20166;-58
2022/12/26 01:30:54;;;;;;;6.05;3.75;;;10.70;99.90;;;;;;7296075;32;20215;-58
2022/12/26 01:34:56;;;;;;;5.85;3.83;;;10.60;99.90;;;;;;7298156;32;20218;-58
2022/12/26 01:38:58;;;;;;;5.25;3.92;;;10.50;99.90;;;;;;7293302;32;20147;-58
2022/12/26 01:43:01;;;;;;;4.85;3.10;;;10.70;99.90;;;;;;7297130;32;20131;-58
2022/12/26 01:47:03;;;;;;;6.03;3.28;;;10.60;99.90;;;;;;7284917;32;20587;-58
2022/12/26 01:51:05;;;;;;;5.65;2.33;;;10.60;99.90;;;;;;7280943;32;20318;-58
2022/12/26 01:55:12;;;;;;;3.17;2.50;;;10.60;99.90;;;;;;7277530;32;20519;-59
2022/12/26 01:59:22;;;;;;;5.93;2.72;;;10.50;99.90;;;;;;7283820;32;20198;-58
2022/12/26 02:07:45;;;;;;;4.10;2.95;;;10.50;99.90;;;;;;7295459;32;20127;-58
2022/12/26 02:11:55;;;;;;;5.40;3.28;;;10.40;99.90;;;;;;7291265;32;20280;-58
2022/12/26 02:16:18;;;;;;;5.95;3.65;;;10.40;99.90;;;;;;7290949;32;20135;-59
2022/12/26 02:20:26;;;;;;;6.53;4.10;;;10.40;99.90;;;;;;7295802;32;20119;-59
2022/12/26 02:25:03;;;;;;;7.55;4.75;;;10.40;99.90;;;;;;7292556;32;20144;-59
2022/12/26 02:29:36;;;;;;;5.22;4.20;;;10.40;99.90;;;;;;7278729;32;20654;-59
2022/12/26 02:34:03;;;;;;;10.57;4.75;;;10.50;99.90;;;;;;7293427;32;20231;-58
2022/12/26 02:38:17;;;;;;;7.22;4.90;;;10.50;99.90;;;;;;7258808;32;20135;-59
2022/12/26 02:42:34;;;;;;;7.18;4.93;;;10.50;99.90;;;;;;7280630;32;20116;-59
2022/12/26 02:47:02;;;;;;;7.85;5.25;;;10.40;99.90;;;;;;7282248;32;20360;-58
2022/12/26 03:13:18;;;;;;;10.68;5.80;;;10.50;99.90;;;;;;7283584;32;20143;-59
2022/12/26 03:17:36;;;;;;;9.98;4.60;;;10.50;99.90;;;;;;7275554;32;20136;-58
2022/12/26 03:21:44;;;;;;;9.15;4.60;;;10.50;99.90;;;;;;7280700;32;20245;-58
2022/12/26 03:34:44;;;;;;;4.87;3.60;;;10.40;99.90;;;;;;7283371;32;20112;-59
2022/12/26 03:38:54;;;;;;;4.70;3.80;;;10.40;99.90;;;;;;7279938;32;20154;-58
2022/12/26 04:19:55;;;;;;;4.62;3.22;;;10.00;99.90;;;;;;7293061;32;20212;-60
2022/12/26 04:45:54;;;;;;;3.03;2.70;;;9.70;99.90;;;;;;7295875;32;20126;-59
2022/12/26 04:50:11;;;;;;;3.95;2.85;;;9.60;99.90;;;;;;7273580;32;20557;-58
2022/12/26 04:54:13;;;;;;;4.03;2.83;;;9.70;99.90;;;;;;7284178;32;20168;-58
2022/12/26 04:58:16;;;;;;;4.60;2.75;;;9.60;99.90;;;;;;7291258;32;20206;-58
2022/12/26 05:10:59;;;;;;;4.12;2.90;;;9.60;99.90;;;;;;7298724;32;20173;-59
2022/12/26 05:15:00;;;;;;;5.43;2.97;;;9.70;99.90;;;;;;7295949;32;20124;-59
2022/12/26 05:32:08;;;;;;;5.75;4.20;;;9.60;99.90;;;;;;7284850;32;20104;-58
2022/12/26 05:36:10;;;;;;;5.53;3.95;;;9.50;99.90;;;;;;7289909;32;20139;-58
2022/12/26 05:40:12;;;;;;;5.43;3.67;;;9.40;99.90;;;;;;7289923;32;20335;-58
2022/12/26 05:44:14;;;;;;;5.93;4.05;;;9.50;99.90;;;;;;7280579;32;20130;-59
2022/12/26 05:48:15;;;;;;;5.32;4.57;;;9.50;99.90;;;;;;7279712;32;20254;-58
2022/12/26 05:52:17;;;;;;;5.62;4.72;;;9.40;99.90;;;;;;7296617;32;20119;-59
2022/12/26 05:56:19;;;;;;;8.32;4.93;;;9.40;99.90;;;;;;7262285;32;20255;-59
2022/12/26 06:00:21;;;;;;;7.75;4.93;;;9.40;99.90;;;;;;7265010;32;20149;-58
2022/12/26 06:04:23;;;;;;;5.47;4.53;;;9.30;99.90;;;;;;7268919;32;20232;-59
2022/12/26 06:08:25;;;;;;;6.62;5.28;;;9.40;99.90;;;;;;7274724;32;20275;-58
2022/12/26 06:12:27;;;;;;;8.80;6.15;;;9.30;99.90;;;;;;7300054;32;20162;-58
2022/12/26 06:16:29;;;;;;;9.45;6.50;;;9.30;99.90;;;;;;7274554;32;20157;-59
2022/12/26 06:20:31;;;;;;;8.95;6.05;;;9.20;99.90;;;;;;7288745;32;20544;-59
2022/12/26 06:24:33;;;;;;;9.73;6.37;;;9.30;99.90;;;;;;7276322;32;20595;-59
2022/12/26 06:28:35;;;;;;;8.35;6.80;;;9.30;99.90;;;;;;7285530;32;20218;-59
2022/12/26 06:32:37;;;;;;;7.87;6.40;;;9.40;99.90;;;;;;7280010;32;20164;-59
2022/12/26 06:36:39;;;;;;;7.55;6.35;;;9.40;99.90;;;;;;7296950;32;20138;-59
2022/12/26 06:40:41;;;;;;;8.25;6.47;;;9.50;99.90;;;;;;7277216;32;20515;-58
2022/12/26 06:44:43;;;;;;;7.37;5.62;;;9.50;99.90;;;;;;7292410;32;20195;-60
2022/12/26 06:48:44;;;;;;;9.65;6.62;;;9.50;99.90;;;;;;7294543;32;20104;-59
2022/12/26 06:52:46;;;;;;;7.65;6.45;;;9.50;99.90;;;;;;7290526;32;20558;-60
2022/12/26 06:56:48;;;;;;;11.60;7.18;;;9.60;99.90;;;;;;7279298;32;20148;-61
2022/12/26 07:00:49;;;;;;;9.50;7.05;;;9.50;99.90;;;;;;7285127;32;20100;-59
2022/12/26 07:04:51;;;;;;;10.35;6.87;;;9.60;99.90;;;;;;7290508;32;20142;-59
2022/12/26 07:08:56;;;;;;;9.50;7.53;;;9.60;99.90;;;;;;7293678;32;20115;-60
2022/12/26 07:12:58;;;;;;;10.18;6.12;;;9.60;99.90;;;;;;7285029;32;20244;-59
2022/12/26 07:16:59;;;;;;;10.25;6.45;;;9.70;99.90;;;;;;7291458;32;20134;-59
2022/12/26 07:21:10;;;;;;;9.27;6.00;;;9.70;99.90;;;;;;7291795;32;20250;-60
2022/12/26 07:25:12;;;;;;;8.98;4.70;;;9.70;99.90;;;;;;7286394;32;20128;-61
2022/12/26 07:29:14;;;;;;;8.02;4.20;;;9.80;99.90;;;;;;7273986;32;20143;-59
2022/12/26 07:33:16;;;;;;;6.37;4.45;;;9.80;99.90;;;;;;7291427;32;20303;-59
2022/12/26 07:37:18;;;;;;;6.43;3.85;;;9.90;99.90;;;;;;7275434;32;20120;-59
2022/12/26 07:45:40;;;;;;;4.93;2.33;;;9.90;99.90;;;;;;7286373;32;20170;-62
2022/12/26 07:49:46;;;;;;;4.45;2.50;;;9.90;99.90;;;;;;7291407;32;20123;-61
2022/12/26 07:53:48;;;;;;;5.18;2.92;;;9.90;99.90;;;;;;7295908;32;20144;-62
2022/12/26 07:57:51;;;;;;;2.80;2.22;;;9.90;99.90;;;;;;7294048;32;20166;-62
2022/12/26 08:01:55;;;;;;;2.90;2.20;;;9.90;99.90;;;;;;7282241;32;20138;-64
2022/12/26 08:05:57;;;;;;;4.40;1.80;;;9.90;99.90;;;;;;7289246;32;20222;-64
2022/12/26 08:09:59;;;;;;;5.18;1.70;;;9.90;99.90;;;;;;7291438;32;20128;-64
2022/12/26 08:14:01;;;;;;;9.45;6.18;;;9.90;99.90;;;;;;7293131;32;20733;-62
2022/12/26 08:18:03;;;;;;;2.65;1.15;;;10.00;99.90;;;;;;7288393;32;20130;-62
2022/12/26 08:22:05;;;;;;;3.50;1.35;;;10.00;99.90;;;;;;7289862;32;20173;-62
2022/12/26 08:26:10;;;;;;;2.85;1.30;;;10.00;99.90;;;;;;7293989;32;20195;-62
2022/12/26 08:30:12;;;;;;;6.00;1.60;;;10.00;99.90;;;;;;7283810;32;20181;-62
2022/12/26 08:34:13;;;;;;;4.12;1.27;;;10.00;99.90;;;;;;7282401;32;20111;-62
2022/12/26 08:38:15;;;;;;;2.28;1.23;;;10.00;99.90;;;;;;7282879;32;20223;-62
2022/12/26 08:42:18;;;;;;;3.22;1.20;;;10.00;99.90;;;;;;7290428;32;20633;-62
2022/12/26 08:46:21;;;;;;;2.55;1.33;;;9.90;99.90;;;;;;7292009;32;20957;-62
2022/12/26 08:50:22;;;;;;;2.80;0.95;;;9.90;99.90;;;;;;7293901;32;20285;-61
2022/12/26 08:54:24;;;;;;;1.98;1.00;;;9.90;99.90;;;;;;7292392;32;20130;-61
2022/12/26 08:58:27;;;;;;;3.78;1.10;;;9.90;99.90;;;;;;7291674;32;20572;-62
2022/12/26 09:02:28;;;;;;;2.35;1.00;;;9.90;99.90;;;;;;7286350;32;20131;-62
2022/12/26 09:06:32;;;;;;;3.65;1.00;;;9.90;99.90;;;;;;7290664;32;20142;-63
2022/12/26 09:10:34;;;;;;;3.45;0.90;;;9.90;99.90;;;;;;7291801;32;20450;-64
2022/12/26 09:14:36;;;;;;;3.12;0.80;;;10.00;99.90;;;;;;7291945;32;20103;-64
2022/12/26 09:18:38;;;;;;;1.98;1.20;;;9.90;99.90;;;;;;7267837;32;20250;-64
2022/12/26 09:22:52;;;;;;;4.22;0.93;;;9.90;99.90;;;;;;7291373;32;20174;-62
2022/12/26 09:26:53;;;;;;;2.55;0.95;;;9.90;99.90;;;;;;7287361;32;20168;-62
2022/12/26 09:31:02;;;;;;;2.55;0.90;;;10.00;99.90;;;;;;7286930;32;20640;-63
2022/12/26 09:35:05;;;;;;;2.62;1.27;;;10.00;99.90;;;;;;7291999;32;20257;-63
2022/12/26 09:39:07;;;;;;;2.83;1.15;;;10.00;99.90;;;;;;7293482;32;20668;-63
2022/12/26 09:43:26;;;;;;;4.15;1.30;;;9.90;99.90;;;;;;7293403;32;20292;-63
2022/12/26 09:47:52;;;;;;;3.40;0.70;;;10.00;99.90;;;;;;7293451;32;20116;-62
2022/12/26 09:52:00;;;;;;;3.80;0.65;;;10.00;99.90;;;;;;7292710;32;20222;-62
2022/12/26 09:56:10;;;;;;;3.50;1.00;;;10.00;99.90;;;;;;7286308;32;20139;-63
2022/12/26 10:00:51;;;;;;;2.42;1.00;;;10.10;99.90;;;;;;7291217;32;20133;-63
2022/12/26 10:04:54;;;;;;;3.35;0.88;;;10.20;99.90;;;;;;7288359;32;20136;-63
2022/12/26 10:09:22;;;;;;;1.92;1.02;;;10.20;99.90;;;;;;7291645;32;20774;-63
2022/12/26 10:13:45;;;;;;;2.65;1.00;;;10.20;99.90;;;;;;7291678;32;20530;-62
2022/12/26 10:18:15;;;;;;;3.65;1.00;;;10.30;99.90;;;;;;7286229;32;20760;-62
2022/12/26 10:22:33;;;;;;;1.80;0.90;;;10.40;99.90;;;;;;7294709;32;20270;-62
2022/12/26 10:26:45;;;;;;;3.10;0.85;;;10.30;99.90;;;;;;7293252;32;20227;-63
2022/12/26 10:30:49;;;;;;;3.75;0.65;;;10.40;99.90;;;;;;7294240;32;20270;-63
2022/12/26 10:34:52;;;;;;;4.20;1.33;;;10.50;99.90;;;;;;7292563;32;20312;-63
2022/12/26 10:38:57;;;;;;;2.62;0.80;;;10.50;99.90;;;;;;7286608;32;20136;-65
2022/12/26 10:43:24;;;;;;;2.72;0.85;;;10.40;99.90;;;;;;7287293;32;20139;-65
2022/12/26 10:47:39;;;;;;;4.57;0.90;;;10.40;99.90;;;;;;7285159;32;20512;-64
2022/12/26 10:51:40;;;;;;;2.50;0.70;;;10.50;99.90;;;;;;7288702;32;20135;-62
2022/12/26 10:55:43;;;;;;;4.62;0.90;;;10.60;99.90;;;;;;7283240;32;20181;-63
2022/12/26 10:59:47;;;;;;;5.07;0.80;;;10.70;99.90;;;;;;7291814;32;20112;-63
2022/12/26 11:03:57;;;;;;;2.10;0.77;;;10.80;99.90;;;;;;7281246;32;20170;-62
2022/12/26 11:08:15;;;;;;;1.98;0.70;;;10.70;99.90;;;;;;7290596;32;20107;-63
2022/12/26 11:12:20;;;;;;;5.37;1.15;;;10.80;99.90;;;;;;7291254;32;20203;-62
2022/12/26 11:16:30;;;;;;;2.47;0.70;;;10.80;99.90;;;;;;7291570;32;20171;-62
2022/12/26 11:20:32;;;;;;;3.85;1.15;;;10.80;99.90;;;;;;7290247;32;20518;-62
2022/12/26 11:24:33;;;;;;;6.25;1.33;;;10.80;99.90;;;;;;7277174;32;20154;-61
2022/12/26 11:28:36;;;;;;;2.45;0.73;;;10.90;99.90;;;;;;7289570;32;20138;-62
2022/12/26 11:32:39;;;;;;;5.20;1.05;;;10.90;99.90;;;;;;7279979;32;20112;-61
2022/12/26 11:36:47;;;;;;;6.07;1.08;;;11.00;99.90;;;;;;7294081;32;20547;-62
2022/12/26 11:41:30;;;;;;;6.10;1.40;;;10.90;99.90;;;;;;7290946;32;20170;-61
2022/12/26 11:45:21;;;;;;;5.53;1.00;;;10.90;99.90;;;;;;7290069;32;20131;-61
2022/12/26 11:49:29;;;;;;;3.40;0.82;;;10.90;99.90;;;;;;7286139;32;20707;-61
2022/12/26 11:53:33;;;;;;;4.10;0.85;;;10.90;99.90;;;;;;7264872;32;20247;-62
2022/12/26 11:57:35;;;;;;;3.67;1.08;;;10.90;99.90;;;;;;7279285;32;20237;-63
2022/12/26 12:01:37;;;;;;;2.25;0.80;;;10.80;99.90;;;;;;7286953;32;20135;-63
2022/12/26 12:05:47;;;;;;;3.55;0.80;;;10.70;99.90;;;;;;7293068;32;20619;-62
2022/12/26 12:09:53;;;;;;;3.47;0.80;;;10.70;99.90;;;;;;7294814;32;20274;-63
2022/12/26 12:14:24;;;;;;;5.85;1.40;;;10.60;99.90;;;;;;7289783;32;20133;-62
2022/12/26 12:18:47;;;;;;;4.15;0.93;;;10.70;99.90;;;;;;7288034;32;20134;-63
2022/12/26 12:23:11;;;;;;;3.62;0.80;;;10.80;99.90;;;;;;7293300;32;20172;-65
2022/12/26 12:27:43;;;;;;;4.03;0.93;;;10.80;99.90;;;;;;7296413;32;20258;-63
2022/12/26 12:31:56;;;;;;;3.78;0.65;;;10.80;99.90;;;;;;7290272;32;20142;-61
2022/12/26 12:36:32;;;;;;;2.20;0.80;;;10.70;99.90;;;;;;7284978;32;20168;-61
2022/12/26 12:40:40;;;;;;;2.58;0.70;;;10.70;99.90;;;;;;7220452;32;20151;-63
2022/12/26 12:44:45;;;;;;;4.87;1.23;;;10.50;99.90;;;;;;7285036;32;20104;-63
2022/12/26 12:49:06;;;;;;;6.90;0.93;;;10.40;99.90;;;;;;7286728;32;20870;-64
2022/12/26 12:53:35;;;;;;;5.35;1.02;;;10.40;99.90;;;;;;7289596;32;20719;-64
2022/12/26 12:57:57;;;;;;;3.50;0.98;;;10.40;99.90;;;;;;7289238;32;20701;-62
2022/12/26 13:02:05;;;;;;;5.05;0.75;;;10.40;99.90;;;;;;7286737;32;20231;-63
2022/12/26 13:06:19;;;;;;;2.70;0.77;;;10.20;99.90;;;;;;7283658;32;20172;-61
2022/12/26 13:10:31;;;;;;;4.60;0.77;;;9.70;99.90;;;;;;7291570;32;20099;-60
2022/12/26 13:14:46;;;;;;;2.53;0.70;;;9.30;99.90;;;;;;7285323;32;20145;-61
2022/12/26 13:18:52;;;;;;;1.80;0.60;;;8.90;99.90;;;;;;7283950;32;20643;-61
2022/12/26 13:27:34;;;;;;;3.83;0.90;;;8.70;99.90;;;;;;7291808;32;20225;-61
2022/12/26 13:31:39;;;;;;;3.65;1.20;;;8.70;99.90;;;;;;7289100;32;20136;-61
2022/12/26 13:35:58;;;;;;;2.75;1.00;;;8.70;99.90;;;;;;7287723;32;20258;-61
2022/12/26 13:40:05;;;;;;;4.65;1.25;;;8.70;99.90;;;;;;7272142;32;20253;-60
2022/12/26 13:44:26;;;;;;;6.07;1.45;;;8.70;99.90;;;;;;7285965;32;20501;-60
2022/12/26 13:48:31;;;;;;;5.53;1.23;;;8.70;99.90;;;;;;7295797;32;20922;-61
2022/12/26 13:52:38;;;;;;;7.35;1.30;;;8.70;99.90;;;;;;7294990;32;20140;-61
2022/12/26 13:56:40;;;;;;;;;;;8.80;99.90;;;;;;7290406;32;20130;-61
2022/12/26 14:00:48;;;;;;;5.30;1.55;;;8.70;99.90;;;;;;7293190;32;20030;-61
2022/12/26 14:04:53;;;;;;;6.82;1.50;;;8.80;99.90;;;;;;7283208;32;20185;-60
2022/12/26 14:09:01;;;;;;;5.97;1.55;;;8.80;99.90;;;;;;7293639;32;20322;-61
2022/12/26 14:13:40;;;;;;;6.25;1.30;;;8.80;99.90;;;;;;7293131;32;20710;-62
2022/12/26 14:17:56;;;;;;;6.62;1.77;;;8.70;99.90;;;;;;7296223;32;20144;-62
2022/12/26 14:22:08;;;;;;;4.28;1.45;;;8.60;99.90;;;;;;7294640;32;20166;-61
2022/12/26 14:26:30;;;;;;;4.10;0.90;;;8.50;99.90;;;;;;7295480;32;20143;-60
2022/12/26 14:30:51;;;;;;;4.28;0.82;;;8.50;99.90;;;;;;7294455;32;20241;-61
2022/12/26 14:35:05;;;;;;;5.62;1.33;;;8.40;99.90;;;;;;7293898;32;20552;-61
2022/12/26 14:39:44;;;;;;;6.20;1.40;;;8.30;99.90;;;;;;7291071;32;20150;-63
2022/12/26 14:43:46;;;;;;;5.12;1.50;;;8.30;99.90;;;;;;7277836;32;20415;-60
2022/12/26 14:47:48;;;;;;;5.80;1.80;;;8.30;99.90;;;;;;7285262;32;20219;-62
2022/12/26 14:51:51;;;;;;;5.97;1.58;;;8.30;99.90;;;;;;7286481;32;20820;-63
2022/12/26 14:55:56;;;;;;;8.43;2.67;;;8.20;99.90;;;;;;7286337;32;20103;-62
2022/12/26 15:00:22;;;;;;;10.25;2.55;;;8.10;99.90;;;;;;7294892;32;20096;-61
2022/12/26 15:05:04;;;;;;;7.35;2.30;;;8.10;99.90;;;;;;7283524;32;20096;-61
2022/12/26 15:09:50;;;;;;;7.80;2.45;;;8.00;99.90;;;;;;7264971;32;20463;-62
2022/12/26 15:13:51;;;;;;;8.57;2.65;;;8.00;99.90;;;;;;7196764;32;20211;-63
2022/12/26 15:18:17;;;;;;;12.68;3.20;;;8.00;99.90;;;;;;7291543;32;20313;-62
2022/12/26 15:22:46;;;;;;;5.68;3.47;;;8.10;99.90;;;;;;7294800;32;22450;-64
2022/12/26 15:27:18;;;;;;;7.20;2.87;;;7.90;99.90;;;;;;7288361;32;20355;-62
2022/12/26 15:31:57;;;;;;;7.25;2.00;;;7.90;99.90;;;;;;7290482;32;20187;-62
2022/12/26 15:36:16;;;;;;;7.32;1.60;;;7.90;99.90;;;;;;7295808;32;20110;-60
2022/12/26 15:40:35;;;;;;;6.00;2.00;;;7.70;99.90;;;;;;7292627;32;20758;-60
2022/12/26 15:44:49;;;;;;;8.85;1.33;;;7.60;99.90;;;;;;7289945;32;20395;-59
2022/12/26 15:49:12;;;;;;;6.80;1.05;;;7.60;99.90;;;;;;7293454;32;20192;-60
2022/12/26 15:53:31;;;;;;;3.53;0.98;;;7.50;99.90;;;;;;7293178;32;20303;-60
2022/12/26 15:57:56;;;;;;;2.78;1.15;;;7.30;99.90;;;;;;7296237;32;20132;-60
2022/12/26 16:01:58;;;;;;;9.02;1.35;;;7.20;99.90;;;;;;7290499;32;20142;-61
2022/12/26 16:06:41;;;;;;;7.72;1.30;;;7.10;99.90;;;;;;7295680;32;20217;-59
2022/12/26 16:10:44;;;;;;;4.30;1.02;;;7.00;99.90;;;;;;7287772;32;20341;-59
2022/12/26 16:15:16;;;;;;;4.40;0.95;;;6.90;99.90;;;;;;7290230;32;20284;-59
2022/12/26 16:19:20;;;;;;;5.50;1.10;;;6.90;99.90;;;;;;7270473;32;20212;-59
2022/12/26 16:23:26;;;;;;;5.55;1.50;;;6.80;99.90;;;;;;7282285;32;20264;-59
2022/12/26 16:27:29;;;;;;;3.55;1.20;;;6.70;99.90;;;;;;7283627;32;20206;-59
2022/12/26 16:31:31;;;;;;;4.35;1.20;;;6.80;99.90;;;;;;7285232;32;20241;-59
2022/12/26 16:35:39;;;;;;;4.68;1.45;;;6.60;99.90;;;;;;7288725;32;20214;-60
2022/12/26 16:39:41;;;;;;;4.30;1.02;;;6.50;99.90;;;;;;7282301;32;20127;-59
2022/12/26 16:43:42;;;;;;;5.15;1.23;;;6.50;99.90;;;;;;7275297;32;20202;-59
2022/12/26 16:47:45;;;;;;;5.82;1.50;;;6.40;99.90;;;;;;7287165;32;21007;-62
2022/12/26 16:51:48;;;;;;;7.97;1.50;;;6.20;99.90;;;;;;7285153;32;20099;-60
2022/12/26 16:56:11;;;;;;;4.20;1.90;;;6.10;99.90;;;;;;7283777;32;20212;-61
2022/12/26 17:00:18;;;;;;;4.80;1.75;;;6.10;99.90;;;;;;7280380;32;20183;-60
2022/12/26 17:04:23;;;;;;;5.50;1.80;;;6.00;99.90;;;;;;7274067;32;20221;-60
2022/12/26 17:08:26;;;;;;;8.52;1.92;;;6.00;99.90;;;;;;7287587;32;20554;-60
2022/12/26 17:12:35;;;;;;;6.90;1.60;;;6.00;99.90;;;;;;7284409;32;20291;-60
2022/12/26 17:16:37;;;;;;;4.68;2.15;;;5.90;99.90;;;;;;7291205;32;20147;-60
2022/12/26 17:20:39;;;;;;;5.75;1.77;;;5.90;99.90;;;;;;7283223;32;20678;-60
2022/12/26 17:24:42;;;;;;;8.00;1.95;;;6.00;99.90;;;;;;7276996;32;20222;-60
2022/12/26 17:28:43;;;;;;;6.57;1.95;;;5.90;99.90;;;;;;7293067;32;20119;-61
2022/12/26 17:32:46;;;;;;;6.25;1.65;;;5.80;99.90;;;;;;7284807;32;20119;-60
2022/12/26 17:36:48;;;;;;;6.10;1.87;;;5.80;99.90;;;;;;7286060;32;20134;-60
2022/12/26 17:41:13;;;;;;;5.10;1.75;;;5.80;99.90;;;;;;7286109;32;20108;-61
2022/12/26 17:45:26;;;;;;;7.07;2.12;;;5.80;99.90;;;;;;7289068;32;20517;-61
2022/12/26 17:49:28;;;;;;;4.15;1.15;;;5.70;99.90;;;;;;7285894;32;21199;-60
2022/12/26 17:53:32;;;;;;;10.45;1.50;;;5.70;99.90;;;;;;7273856;32;20186;-60
2022/12/26 17:57:34;;;;;;;6.93;1.33;;;5.50;99.90;;;;;;7283612;32;20112;-59
2022/12/26 18:01:36;;;;;;;6.30;1.30;;;5.40;99.90;;;;;;7283553;32;20108;-60
2022/12/26 18:05:38;;;;;;;6.55;1.55;;;5.30;99.90;;;;;;7277834;32;20120;-60
2022/12/26 18:09:41;;;;;;;8.35;2.15;;;5.20;99.90;;;;;;7283066;32;20105;-61
2022/12/26 18:13:43;;;;;;;7.22;1.87;;;5.10;99.90;;;;;;7267933;32;20130;-61
2022/12/26 18:17:46;;;;;;;7.10;3.08;;;5.00;99.90;;;;;;7286889;32;20108;-61
2022/12/26 18:21:48;;;;;;;5.87;1.77;;;4.90;99.90;;;;;;7282246;32;20619;-60
2022/12/26 18:25:50;;;;;;;5.25;1.90;;;4.80;99.90;;;;;;7284274;32;20210;-61
2022/12/26 18:29:56;;;;;;;8.48;2.62;;;4.70;99.90;;;;;;7285809;32;20722;-60
2022/12/26 18:33:57;;;;;;;7.53;2.10;;;4.70;99.90;;;;;;7272712;32;20532;-61
2022/12/26 18:37:59;;;;;;;7.50;2.10;;;4.70;99.90;;;;;;7286264;32;20703;-61
2022/12/26 18:42:01;;;;;;;4.97;1.67;;;4.50;99.90;;;;;;7287262;32;20154;-60
2022/12/26 18:46:02;;;;;;;7.68;1.92;;;4.50;99.90;;;;;;7287440;32;20139;-61
2022/12/26 18:50:10;;;;;;;5.82;1.95;;;4.50;99.90;;;;;;7282681;32;20282;-63
2022/12/26 18:54:12;;;;;;;5.85;2.00;;;4.50;99.90;;;;;;7271615;32;20203;-60
2022/12/26 18:58:13;;;;;;;11.70;4.30;;;4.30;99.90;;;;;;7292345;32;20426;-60
2022/12/26 19:02:18;;;;;;;9.18;3.15;;;4.30;99.90;;;;;;7287328;32;20264;-59
2022/12/26 19:06:25;;;;;;;7.43;3.30;;;4.20;99.90;;;;;;7286933;32;20164;-61
2022/12/26 19:10:30;;;;;;;7.62;2.00;;;4.20;99.90;;;;;;7289507;32;20202;-60
2022/12/26 19:14:32;;;;;;;8.00;1.90;;;4.30;99.90;;;;;;7273120;32;20194;-59
2022/12/26 19:18:34;;;;;;;8.73;2.30;;;4.20;99.90;;;;;;7282328;32;20222;-59
2022/12/26 19:22:35;;;;;;;15.20;3.42;;;4.10;99.90;;;;;;7285804;32;20477;-59
2022/12/26 19:26:37;;;;;;;10.63;2.87;;;4.20;99.90;;;;;;7284750;32;20155;-58
2022/12/26 19:30:39;;;;;;;10.15;2.33;;;4.10;99.90;;;;;;7286833;32;20289;-58
2022/12/26 19:34:41;;;;;;;6.85;2.50;;;4.10;99.90;;;;;;7289425;32;20600;-60
2022/12/26 19:38:42;;;;;;;10.40;2.37;;;4.10;99.90;;;;;;7286225;32;20299;-59
2022/12/26 19:42:46;;;;;;;9.85;2.90;;;4.00;99.90;;;;;;7288461;32;20761;-59
2022/12/26 19:46:48;;;;;;;8.73;2.58;;;4.00;99.90;;;;;;7295327;32;20299;-58
2022/12/26 19:51:12;;;;;;;8.50;2.47;;;3.90;99.90;;;;;;7274101;32;20145;-60
2022/12/26 19:55:14;;;;;;;9.68;2.00;;;3.90;99.90;;;;;;7289141;32;20235;-58
2022/12/26 19:59:16;;;;;;;12.27;2.00;;;4.00;99.90;;;;;;7277519;32;20875;-59
2022/12/26 20:03:17;;;;;;;6.53;1.95;;;3.90;99.90;;;;;;7290325;32;20804;-58
2022/12/26 20:07:19;;;;;;;7.78;2.20;;;3.80;99.90;;;;;;7287624;32;20234;-59
2022/12/26 20:11:23;;;;;;;8.05;2.03;;;3.60;99.90;;;;;;7294268;32;20219;-58
2022/12/26 20:15:26;;;;;;;8.48;2.42;;;3.60;99.90;;;;;;7288180;32;20266;-58
2022/12/26 20:19:27;;;;;;;5.62;2.35;;;3.60;99.90;;;;;;7268731;32;20171;-59
2022/12/26 20:23:29;;;;;;;7.18;1.75;;;3.60;99.90;;;;;;7293592;32;20357;-58
2022/12/26 20:27:31;;;;;;;9.13;2.30;;;3.50;99.90;;;;;;7294583;32;20478;-59
2022/12/26 20:31:34;;;;;;;13.45;3.20;;;3.40;99.90;;;;;;7290107;32;20263;-60
2022/12/26 20:35:36;;;;;;;7.10;2.70;;;3.40;99.90;;;;;;7291131;32;20100;-59
2022/12/26 20:39:38;;;;;;;8.13;2.58;;;3.40;99.90;;;;;;7294135;32;20484;-60
2022/12/26 20:43:40;;;;;;;8.18;2.90;;;3.50;99.90;;;;;;7280651;32;20259;-60
2022/12/26 20:47:42;;;;;;;7.05;2.10;;;3.40;99.90;;;;;;7295588;32;20150;-61
2022/12/26 20:51:44;;;;;;;11.18;2.55;;;3.50;99.90;;;;;;7296516;32;20112;-60
2022/12/26 20:55:52;;;;;;;12.15;2.12;;;3.40;99.90;;;;;;7297875;32;20868;-60
2022/12/26 20:59:54;;;;;;;8.52;1.98;;;3.50;99.90;;;;;;7296029;32;20566;-61
2022/12/26 21:03:56;;;;;;;12.75;2.35;;;3.40;99.90;;;;;;7282707;32;20163;-60
2022/12/26 21:07:58;;;;;;;8.25;2.17;;;3.30;99.90;;;;;;7296505;32;20548;-60
2022/12/26 21:12:00;;;;;;;10.75;3.05;;;3.40;99.90;;;;;;7300966;32;20217;-59
2022/12/26 21:16:11;;;;;;;6.97;1.55;;;3.40;99.90;;;;;;7294792;32;20279;-61
2022/12/26 21:20:13;;;;;;;10.88;2.40;;;3.60;99.90;;;;;;7294379;32;20121;-62
2022/12/26 21:24:27;;;;;;;9.63;2.12;;;3.60;99.90;;;;;;7286265;32;20199;-62
2022/12/26 21:28:29;;;;;;;12.27;2.47;;;3.80;99.90;;;;;;7294847;32;20104;-62
2022/12/26 21:32:31;;;;;;;10.93;2.20;;;3.90;99.90;;;;;;7299336;32;20100;-60
2022/12/26 21:36:34;;;;;;;10.82;2.75;;;3.90;99.90;;;;;;7279552;32;20134;-60
2022/12/26 21:40:35;;;;;;;11.12;2.08;;;4.10;99.90;;;;;;7294573;32;20103;-60
2022/12/26 21:44:37;;;;;;;9.18;1.62;;;4.10;99.90;;;;;;7296594;32;20177;-60
2022/12/26 21:48:45;;;;;;;8.50;1.65;;;4.00;99.90;;;;;;7290771;32;20179;-61
2022/12/26 21:52:48;;;;;;;8.27;1.73;;;4.10;99.90;;;;;;7288743;32;20680;-60
2022/12/26 21:56:49;;;;;;;13.77;2.17;;;4.10;99.90;;;;;;7297049;32;20183;-59
2022/12/26 22:00:51;;;;;;;9.40;1.70;;;4.00;99.90;;;;;;7294350;32;20104;-60
2022/12/26 22:04:52;;;;;;;6.53;1.70;;;3.90;99.90;;;;;;7293866;32;20130;-62
2022/12/26 22:08:54;;;;;;;7.05;1.33;;;3.90;99.90;;;;;;7278361;32;20191;-61
2022/12/26 22:12:56;;;;;;;6.30;1.40;;;3.80;99.90;;;;;;7296482;32;20158;-60
2022/12/26 22:16:57;;;;;;;9.80;1.77;;;3.80;99.90;;;;;;7291059;32;20214;-60
2022/12/26 22:21:05;;;;;;;6.72;1.60;;;3.80;99.90;;;;;;7294625;32;20185;-59
2022/12/26 22:25:09;;;;;;;12.82;2.10;;;3.80;99.90;;;;;;7290051;32;20120;-60
2022/12/26 22:29:11;;;;;;;9.65;1.67;;;3.70;99.90;;;;;;7297228;32;20191;-59
2022/12/26 22:33:12;;;;;;;11.88;1.42;;;3.80;99.90;;;;;;7288530;32;20114;-59
2022/12/26 22:37:14;;;;;;;11.95;1.55;;;3.70;99.90;;;;;;7293264;32;20138;-59
2022/12/26 22:41:16;;;;;;;9.20;1.70;;;3.70;99.90;;;;;;7289805;32;20197;-59
2022/12/26 22:45:18;;;;;;;11.07;1.67;;;3.80;99.90;;;;;;7292272;32;20530;-59
2022/12/26 22:49:19;;;;;;;11.12;1.52;;;3.80;99.90;;;;;;7293305;32;20522;-59
2022/12/26 22:53:23;;;;;;;12.15;1.73;;;3.80;99.90;;;;;;7297768;32;20122;-59
2022/12/26 22:57:25;;;;;;;6.00;1.30;;;3.80;99.90;;;;;;7291234;32;20457;-60
2022/12/26 23:01:27;;;;;;;7.10;1.70;;;3.80;99.90;;;;;;7288986;32;20122;-59
2022/12/26 23:05:29;;;;;;;8.77;1.55;;;3.80;99.90;;;;;;7291356;32;20175;-59
2022/12/26 23:09:31;;;;;;;11.15;1.58;;;3.80;99.90;;;;;;7291066;32;20180;-59
2022/12/26 23:13:32;;;;;;;6.60;1.52;;;3.80;99.90;;;;;;7281796;32;20175;-59
2022/12/26 23:21:59;;;;;;;5.78;1.33;;;3.80;99.90;;;;;;7289343;32;20231;-59
2022/12/26 23:26:01;;;;;;;8.20;1.73;;;3.80;99.90;;;;;;7283857;32;20114;-59
2022/12/26 23:30:19;;;;;;;10.13;1.77;;;3.70;99.90;;;;;;7288730;32;20213;-59
2022/12/26 23:34:20;;;;;;;8.25;1.80;;;3.80;99.90;;;;;;7281270;32;20100;-59
2022/12/26 23:38:22;;;;;;;10.80;1.62;;;3.70;99.90;;;;;;7271249;32;20183;-61
2022/12/26 23:42:24;;;;;;;8.18;1.90;;;3.70;99.90;;;;;;7275727;32;20371;-61
2022/12/26 23:46:26;;;;;;;7.72;1.80;;;3.80;99.90;;;;;;7291619;32;20184;-59